createdAt,value
2023-02-04T00:01:22.709Z,10.98
2023-02-04T00:03:49.312Z,11.25
2023-02-04T00:06:15.892Z,13.35
2023-02-04T00:08:45.246Z,14.55
2023-02-04T00:11:12.963Z,10.35
2023-02-04T00:13:58.167Z,11.40
2023-02-04T00:16:24.896Z,14.65
2023-02-04T00:18:51.674Z,10.85
2023-02-04T00:21:27.299Z,11.77
2023-02-04T00:23:59.243Z,14.68
2023-02-04T00:26:30.103Z,9.75
2023-02-04T00:28:57.972Z,9.50
2023-02-04T00:31:25.264Z,8.65
2023-02-04T00:33:54.597Z,9.05
2023-02-04T00:36:23.869Z,11.45
2023-02-04T00:38:53.969Z,9.02
2023-02-04T00:41:24.929Z,12.70
2023-02-04T00:43:55.238Z,8.07
2023-02-04T00:46:24.340Z,10.88
2023-02-04T00:48:52.919Z,15.48
2023-02-04T00:51:24.213Z,12.05
2023-02-04T00:53:50.834Z,8.82
2023-02-04T00:56:17.653Z,10.32
2023-02-04T00:58:44.278Z,14.32
2023-02-04T01:01:20.976Z,13.05
2023-02-04T01:03:49.647Z,12.75
2023-02-04T01:06:16.295Z,12.85
2023-02-04T01:08:42.882Z,10.43
2023-02-04T01:11:09.410Z,10.20
2023-02-04T01:13:38.327Z,13.25
2023-02-04T01:16:05.412Z,8.88
2023-02-04T01:18:34.972Z,13.93
2023-02-04T01:21:01.575Z,8.05
2023-02-04T01:23:30.596Z,10.18
2023-02-04T01:25:57.300Z,12.93
2023-02-04T01:28:26.327Z,10.00
2023-02-04T01:30:54.998Z,14.13
2023-02-04T01:33:24.149Z,9.98
2023-02-04T01:35:50.830Z,7.65
2023-02-04T01:38:19.961Z,10.52
2023-02-04T01:40:48.882Z,11.98
2023-02-04T01:43:18.287Z,10.40
2023-02-04T01:45:49.179Z,13.43
2023-02-04T01:48:20.310Z,10.02
2023-02-04T01:50:59.714Z,8.55
2023-02-04T01:53:26.817Z,12.15
2023-02-04T01:55:59.065Z,9.02
2023-02-04T01:58:26.320Z,9.60
2023-02-04T02:01:07.402Z,11.55
2023-02-04T02:03:35.934Z,11.27
2023-02-04T02:06:05.752Z,11.02
2023-02-04T02:08:32.337Z,10.70
2023-02-04T02:11:03.649Z,8.93
2023-02-04T02:13:30.561Z,10.90
2023-02-04T02:15:57.164Z,12.88
2023-02-04T02:18:26.250Z,14.30
2023-02-04T02:20:53.031Z,11.88
2023-02-04T02:23:57.051Z,11.52
2023-02-04T02:26:25.094Z,8.48
2023-02-04T02:29:01.860Z,10.55
2023-02-04T02:31:28.575Z,10.02
2023-02-04T02:33:55.371Z,11.38
2023-02-04T02:36:24.759Z,8.77
2023-02-04T02:38:51.421Z,8.80
2023-02-04T02:41:20.497Z,13.07
2023-02-04T02:43:47.108Z,10.90
2023-02-04T02:46:15.855Z,10.38
2023-02-04T02:48:42.565Z,15.55
2023-02-04T02:51:11.794Z,12.93
2023-02-04T02:53:38.856Z,10.68
2023-02-04T02:56:06.523Z,8.60
2023-02-04T02:58:37.941Z,9.82
2023-02-04T03:03:49.609Z,12.70
2023-02-04T03:06:20.929Z,8.32
2023-02-04T03:11:22.057Z,6.13
2023-02-04T03:13:54.161Z,12.48
2023-02-04T03:16:23.214Z,7.45
2023-02-04T03:18:53.987Z,8.80
2023-02-04T03:21:23.306Z,10.98
2023-02-04T03:23:52.690Z,12.07
2023-02-04T03:26:21.658Z,13.00
2023-02-04T03:28:50.719Z,9.20
2023-02-04T03:31:19.619Z,11.98
2023-02-04T03:33:48.474Z,11.52
2023-02-04T03:36:15.100Z,10.60
2023-02-04T03:38:55.387Z,12.75
2023-02-04T03:41:24.529Z,7.97
2023-02-04T03:43:56.316Z,11.75
2023-02-04T03:46:25.836Z,10.57
2023-02-04T03:48:52.522Z,11.73
2023-02-04T03:51:19.168Z,12.18
2023-02-04T03:53:45.742Z,11.18
2023-02-04T03:56:14.669Z,11.15
2023-02-04T03:58:41.462Z,10.75
2023-02-04T04:01:08.039Z,13.68
2023-02-04T04:03:42.023Z,10.90
2023-02-04T04:06:13.044Z,11.40
2023-02-04T04:08:40.962Z,15.27
2023-02-04T04:11:07.558Z,11.85
2023-02-04T04:13:37.184Z,12.23
2023-02-04T04:16:08.889Z,10.07
2023-02-04T04:18:36.190Z,15.73
2023-02-04T04:21:04.001Z,13.68
2023-02-04T04:23:34.978Z,14.48
2023-02-04T04:26:08.915Z,9.18
2023-02-04T04:28:35.463Z,9.93
2023-02-04T04:31:11.958Z,10.38
2023-02-04T04:33:40.918Z,14.30
2023-02-04T04:36:10.274Z,5.70
2023-02-04T04:38:46.334Z,12.10
2023-02-04T04:41:14.097Z,11.75
2023-02-04T04:43:48.204Z,10.82
2023-02-04T04:46:25.089Z,10.25
2023-02-04T04:48:55.902Z,13.05
2023-02-04T04:51:26.965Z,13.13
2023-02-04T04:53:53.520Z,15.27
2023-02-04T04:56:20.214Z,9.98
2023-02-04T04:58:47.753Z,15.13
2023-02-04T05:01:17.019Z,12.05
2023-02-04T05:03:43.713Z,12.68
2023-02-04T05:06:12.981Z,13.60
2023-02-04T05:08:41.344Z,11.45
2023-02-04T05:11:08.066Z,9.85
2023-02-04T05:13:36.780Z,12.52
2023-02-04T05:16:13.246Z,14.82
2023-02-04T05:18:40.740Z,10.63
2023-02-04T05:21:09.689Z,8.35
2023-02-04T05:23:38.565Z,12.95
2023-02-04T05:26:05.362Z,15.80
2023-02-04T05:28:32.913Z,11.73
2023-02-04T05:31:01.346Z,11.85
2023-02-04T05:33:30.117Z,8.43
2023-02-04T05:35:56.712Z,16.98
2023-02-04T05:38:27.240Z,13.38
2023-02-04T05:40:54.582Z,12.02
2023-02-04T05:43:24.107Z,14.68
2023-02-04T05:45:52.727Z,16.52
2023-02-04T05:48:21.782Z,13.88
2023-02-04T05:50:49.573Z,9.82
2023-02-04T05:53:18.622Z,9.13
2023-02-04T05:55:48.326Z,10.30
2023-02-04T05:58:14.947Z,13.57
2023-02-04T06:00:41.545Z,14.25
2023-02-04T06:03:08.240Z,16.38
2023-02-04T06:05:37.428Z,10.65
2023-02-04T06:08:04.202Z,10.82
2023-02-04T06:10:31.154Z,6.20
2023-02-04T06:12:57.908Z,8.70
2023-02-04T06:15:24.528Z,11.63
2023-02-04T06:17:51.150Z,9.70
2023-02-04T06:20:17.762Z,11.93
2023-02-04T06:22:47.478Z,8.38
2023-02-04T06:25:14.207Z,9.00
2023-02-04T06:27:40.855Z,14.40
2023-02-04T06:30:09.295Z,12.68
2023-02-04T06:32:36.071Z,13.00
2023-02-04T06:35:02.641Z,13.48
2023-02-04T06:37:29.182Z,10.52
2023-02-04T06:39:57.418Z,11.32
2023-02-04T06:42:27.912Z,14.05
2023-02-04T06:44:54.552Z,7.45
2023-02-04T06:47:22.489Z,13.98
2023-02-04T06:49:49.081Z,12.45
2023-02-04T06:52:15.679Z,12.38
2023-02-04T06:54:42.298Z,12.15
2023-02-04T06:57:08.887Z,11.60
2023-02-04T06:59:39.665Z,14.45
2023-02-04T07:02:08.018Z,13.13
2023-02-04T07:04:35.318Z,11.60
2023-02-04T07:07:04.507Z,14.25
2023-02-04T07:09:34.469Z,9.77
2023-02-04T07:12:01.113Z,15.57
2023-02-04T07:14:27.747Z,15.90
2023-02-04T07:16:54.350Z,13.57
2023-02-04T07:19:26.204Z,18.98
2023-02-04T07:21:56.454Z,13.13
2023-02-04T07:24:23.671Z,16.27
2023-02-04T07:26:51.926Z,18.23
2023-02-04T07:29:25.750Z,15.93
2023-02-04T07:31:55.305Z,17.85
2023-02-04T07:34:22.301Z,17.23
2023-02-04T07:36:49.021Z,15.30
2023-02-04T07:39:18.438Z,15.70
2023-02-04T07:41:45.026Z,20.83
2023-02-04T07:44:21.173Z,14.98
2023-02-04T07:46:47.717Z,16.75
2023-02-04T07:49:14.259Z,17.77
2023-02-04T07:51:40.878Z,14.88
2023-02-04T07:54:07.508Z,18.15
2023-02-04T07:56:34.126Z,15.15
2023-02-04T07:59:00.821Z,16.85
2023-02-04T08:01:27.435Z,17.40
2023-02-04T08:03:53.997Z,16.77
2023-02-04T08:06:22.975Z,17.70
2023-02-04T08:08:49.548Z,16.58
2023-02-04T08:11:18.533Z,22.55
2023-02-04T08:13:45.091Z,18.38
2023-02-04T08:16:12.008Z,19.92
2023-02-04T08:18:38.668Z,21.27
2023-02-04T08:21:06.179Z,17.70
2023-02-04T08:23:35.585Z,19.58
2023-02-04T08:26:02.145Z,23.55
2023-02-04T08:28:28.773Z,18.85
2023-02-04T08:30:56.162Z,21.65
2023-02-04T08:33:23.074Z,20.80
2023-02-04T08:35:50.285Z,21.10
2023-02-04T08:38:16.969Z,16.63
2023-02-04T08:40:43.986Z,19.35
2023-02-04T08:43:11.990Z,23.90
2023-02-04T08:45:38.792Z,20.08
2023-02-04T08:48:06.404Z,25.25
2023-02-04T08:50:33.360Z,18.05
2023-02-04T08:53:02.515Z,21.02
2023-02-04T08:55:29.269Z,18.88
2023-02-04T08:57:55.821Z,19.70
2023-02-04T09:00:22.554Z,16.58
2023-02-04T09:02:49.089Z,23.17
2023-02-04T09:05:15.865Z,22.58
2023-02-04T09:07:42.428Z,22.17
2023-02-04T09:10:09.332Z,18.70
2023-02-04T09:12:35.989Z,26.00
2023-02-04T09:15:05.345Z,27.48
2023-02-04T09:17:37.163Z,18.38
2023-02-04T09:20:04.972Z,22.63
2023-02-04T09:22:31.732Z,17.13
2023-02-04T09:25:00.470Z,20.63
2023-02-04T09:27:27.027Z,20.70
2023-02-04T09:29:55.865Z,19.92
2023-02-04T09:32:24.709Z,16.65
2023-02-04T09:34:51.318Z,29.20
2023-02-04T09:37:23.591Z,24.60
2023-02-04T09:39:50.197Z,23.20
2023-02-04T09:42:20.812Z,22.08
2023-02-04T09:44:47.389Z,22.02
2023-02-04T09:47:17.763Z,21.25
2023-02-04T09:49:47.419Z,19.15
2023-02-04T09:52:16.768Z,18.10
2023-02-04T09:54:43.556Z,20.58
2023-02-04T09:57:18.337Z,24.88
2023-02-04T09:59:45.921Z,19.30
2023-02-04T10:02:21.884Z,26.27
2023-02-04T10:04:52.150Z,19.65
2023-02-04T10:07:22.280Z,19.95
2023-02-04T10:09:50.045Z,18.52
2023-02-04T10:12:16.865Z,20.90
2023-02-04T10:14:44.049Z,24.33
2023-02-04T10:17:13.007Z,18.55
2023-02-04T10:19:41.828Z,20.15
2023-02-04T10:22:16.821Z,22.65
2023-02-04T10:24:43.441Z,21.45
2023-02-04T10:27:12.074Z,21.95
2023-02-04T10:29:40.198Z,13.95
2023-02-04T10:32:27.375Z,17.10
2023-02-04T10:34:59.961Z,21.60
2023-02-04T10:37:26.621Z,23.05
2023-02-04T10:39:53.426Z,26.02
2023-02-04T10:42:24.020Z,19.58
2023-02-04T10:44:51.168Z,20.45
2023-02-04T10:47:22.427Z,20.33
2023-02-04T10:50:22.359Z,18.08
2023-02-04T10:53:16.259Z,23.88
2023-02-04T10:55:47.760Z,21.48
2023-02-04T10:58:31.559Z,22.63
2023-02-04T11:00:58.739Z,18.73
2023-02-04T11:03:26.558Z,22.85
2023-02-04T11:05:58.969Z,24.15
2023-02-04T11:08:35.282Z,19.48
2023-02-04T11:11:27.950Z,26.83
2023-02-04T11:13:54.982Z,19.48
2023-02-04T11:16:27.412Z,24.00
2023-02-04T11:21:43.718Z,17.85
2023-02-04T11:24:16.930Z,19.75
2023-02-04T11:26:52.863Z,16.17
2023-02-04T11:29:31.021Z,19.55
2023-02-04T11:32:01.394Z,15.27
2023-02-04T11:34:30.709Z,14.30
2023-02-04T11:37:13.013Z,19.33
2023-02-04T11:39:43.364Z,18.73
2023-02-04T11:42:42.148Z,20.27
2023-02-04T11:45:17.591Z,19.92
2023-02-04T11:47:44.565Z,15.90
2023-02-04T11:50:22.152Z,16.92
2023-02-04T11:52:48.750Z,17.13
2023-02-04T11:55:15.508Z,14.98
2023-02-04T11:57:45.348Z,19.58
2023-02-04T12:00:19.836Z,16.98
2023-02-04T12:03:07.686Z,18.33
2023-02-04T12:05:42.228Z,15.77
2023-02-04T12:08:24.339Z,15.45
2023-02-04T12:11:11.065Z,13.68
2023-02-04T12:13:49.543Z,17.83
2023-02-04T12:16:16.856Z,14.40
2023-02-04T12:18:43.502Z,14.93
2023-02-04T12:21:10.363Z,13.35
2023-02-04T12:23:36.929Z,11.77
2023-02-04T12:26:03.636Z,12.85
2023-02-04T12:28:30.201Z,14.32
2023-02-04T12:31:00.250Z,13.00
2023-02-04T12:33:26.934Z,16.33
2023-02-04T12:35:53.725Z,16.20
2023-02-04T12:38:20.733Z,15.27
2023-02-04T12:40:47.433Z,11.82
2023-02-04T12:43:14.047Z,17.23
2023-02-04T12:45:45.417Z,17.35
2023-02-04T12:48:14.875Z,20.02
2023-02-04T12:50:56.868Z,14.45
2023-02-04T12:53:23.472Z,13.55
2023-02-04T12:55:50.033Z,12.52
2023-02-04T12:58:16.614Z,13.52
2023-02-04T13:00:43.259Z,15.18
2023-02-04T13:03:09.815Z,15.88
2023-02-04T13:05:36.369Z,14.23
2023-02-04T13:08:04.012Z,15.25
2023-02-04T13:10:30.604Z,11.65
2023-02-04T13:12:57.256Z,13.10
2023-02-04T13:15:23.841Z,16.13
2023-02-04T13:17:50.661Z,15.20
2023-02-04T13:20:17.687Z,13.40
2023-02-04T13:22:44.345Z,17.13
2023-02-04T13:25:11.563Z,16.20
2023-02-04T13:27:40.732Z,14.93
2023-02-04T13:30:11.109Z,15.73
2023-02-04T13:32:37.721Z,17.10
2023-02-04T13:35:04.489Z,9.65
2023-02-04T13:37:31.065Z,13.75
2023-02-04T13:39:57.635Z,15.80
2023-02-04T13:42:24.231Z,18.67
2023-02-04T13:44:50.850Z,14.50
2023-02-04T13:47:19.759Z,9.70
2023-02-04T13:49:48.798Z,9.35
2023-02-04T13:52:18.141Z,13.77
2023-02-04T13:54:45.343Z,14.35
2023-02-04T13:57:11.990Z,14.82
2023-02-04T13:59:38.589Z,17.02
2023-02-04T14:02:05.208Z,15.25
2023-02-04T14:04:31.762Z,8.80
2023-02-04T14:06:58.317Z,10.85
2023-02-04T14:09:26.856Z,10.80
2023-02-04T14:11:53.710Z,10.07
2023-02-04T14:14:20.273Z,12.65
2023-02-04T14:16:49.254Z,11.55
2023-02-04T14:19:15.904Z,14.98
2023-02-04T14:21:42.510Z,15.32
2023-02-04T14:24:09.177Z,17.55
2023-02-04T14:26:35.801Z,14.98
2023-02-04T14:29:03.626Z,14.55
2023-02-04T14:31:30.298Z,14.15
2023-02-04T14:33:59.399Z,17.20
2023-02-04T14:36:25.976Z,15.00
2023-02-04T14:38:52.553Z,14.40
2023-02-04T14:41:22.182Z,11.43
2023-02-04T14:43:49.003Z,20.27
2023-02-04T14:46:17.312Z,18.00
2023-02-04T14:48:45.290Z,14.40
2023-02-04T14:51:16.484Z,14.57
2023-02-04T14:53:48.119Z,15.70
2023-02-04T14:56:15.143Z,18.10
2023-02-04T14:58:42.701Z,16.92
2023-02-04T15:01:09.508Z,14.90
2023-02-04T15:03:36.316Z,11.52
2023-02-04T15:06:03.297Z,17.42
2023-02-04T15:08:29.985Z,15.18
2023-02-04T15:10:56.785Z,13.43
2023-02-04T15:13:23.600Z,13.23
2023-02-04T15:15:50.234Z,14.80
2023-02-04T15:18:16.971Z,16.95
2023-02-04T15:20:43.604Z,20.35
2023-02-04T15:23:12.944Z,17.48
2023-02-04T15:25:40.271Z,18.10
2023-02-04T15:28:07.315Z,19.17
2023-02-04T15:30:34.423Z,16.58
2023-02-04T15:33:01.242Z,14.23
2023-02-04T15:35:29.085Z,10.50
2023-02-04T15:37:55.689Z,11.13
2023-02-04T15:40:22.256Z,14.30
2023-02-04T15:42:48.864Z,17.98
2023-02-04T15:45:15.551Z,20.35
2023-02-04T15:47:42.134Z,11.68
2023-02-04T15:50:10.834Z,14.30
2023-02-04T15:52:37.570Z,12.57
2023-02-04T15:55:04.541Z,14.48
2023-02-04T15:57:31.100Z,15.00
2023-02-04T15:59:58.208Z,19.23
2023-02-04T16:02:25.907Z,11.50
2023-02-04T16:04:52.553Z,11.70
2023-02-04T16:07:19.313Z,12.10
2023-02-04T16:09:46.489Z,14.82
2023-02-04T16:12:13.109Z,15.95
2023-02-04T16:14:39.688Z,13.15
2023-02-04T16:17:08.093Z,15.98
2023-02-04T16:19:34.775Z,13.93
2023-02-04T16:22:01.402Z,12.15
2023-02-04T16:24:27.978Z,14.18
2023-02-04T16:26:54.537Z,15.43
2023-02-04T16:29:21.099Z,15.52
2023-02-04T16:31:47.753Z,13.35
2023-02-04T16:34:14.318Z,13.63
2023-02-04T16:36:40.977Z,11.35
2023-02-04T16:39:07.569Z,16.95
2023-02-04T16:41:34.133Z,13.52
2023-02-04T16:44:00.894Z,10.77
2023-02-04T16:46:33.362Z,10.38
2023-02-04T16:49:04.818Z,13.32
2023-02-04T16:51:31.462Z,11.25
2023-02-04T16:53:58.049Z,11.57
2023-02-04T16:56:24.750Z,8.40
2023-02-04T16:58:51.269Z,12.02
2023-02-04T17:01:17.913Z,11.68
2023-02-04T17:03:44.789Z,20.48
2023-02-04T17:06:16.095Z,10.40
2023-02-04T17:08:43.243Z,15.55
2023-02-04T17:11:28.651Z,13.20
2023-02-04T17:13:56.554Z,13.23
2023-02-04T17:16:25.540Z,14.57
2023-02-04T17:18:52.310Z,15.15
2023-02-04T17:21:18.883Z,16.35
2023-02-04T17:23:45.533Z,17.05
2023-02-04T17:26:12.188Z,15.65
2023-02-04T17:28:41.325Z,20.52
2023-02-04T17:31:10.529Z,18.30
2023-02-04T17:33:37.566Z,14.80
2023-02-04T17:36:07.227Z,10.27
2023-02-04T17:38:33.899Z,16.88
2023-02-04T17:41:02.660Z,12.80
2023-02-04T17:43:29.288Z,9.70
2023-02-04T17:45:58.308Z,8.63
2023-02-04T17:48:27.729Z,13.43
2023-02-04T17:50:56.755Z,9.57
2023-02-04T17:53:24.518Z,11.10
2023-02-04T17:55:53.337Z,10.15
2023-02-04T17:58:25.052Z,10.43
2023-02-04T18:00:55.123Z,12.73
2023-02-04T18:03:26.415Z,12.13
2023-02-04T18:05:55.361Z,11.93
2023-02-04T18:08:27.551Z,16.25
2023-02-04T18:10:55.476Z,15.80
2023-02-04T18:13:31.590Z,13.20
2023-02-04T18:16:01.200Z,11.18
2023-02-04T18:18:35.735Z,12.82
2023-02-04T18:21:13.717Z,11.00
2023-02-04T18:23:40.311Z,10.30
2023-02-04T18:26:16.571Z,14.48
2023-02-04T18:28:46.094Z,11.20
2023-02-04T18:31:29.422Z,12.15
2023-02-04T18:34:00.094Z,14.68
2023-02-04T18:36:27.895Z,14.80
2023-02-04T18:38:55.642Z,8.88
2023-02-04T18:41:31.166Z,10.35
2023-02-04T18:44:16.396Z,8.30
2023-02-04T18:46:48.980Z,11.52
2023-02-04T18:49:25.199Z,11.40
2023-02-04T18:51:53.437Z,11.43
2023-02-04T18:54:36.888Z,14.75
2023-02-04T18:57:12.627Z,11.57
2023-02-04T18:59:40.240Z,10.40
2023-02-04T19:02:36.987Z,11.38
2023-02-04T19:05:19.299Z,12.10
2023-02-04T19:07:45.977Z,11.85
2023-02-04T19:10:28.454Z,13.45
2023-02-04T19:15:39.345Z,14.10
2023-02-04T19:18:46.910Z,11.45
2023-02-04T19:21:17.935Z,17.33
2023-02-04T19:23:44.701Z,13.10
2023-02-04T19:26:42.945Z,16.95
2023-02-04T19:29:30.365Z,12.30
2023-02-04T19:32:20.363Z,13.10
2023-02-04T19:34:49.646Z,11.75
2023-02-04T19:37:36.942Z,17.65
2023-02-04T19:40:24.574Z,13.77
2023-02-04T19:42:55.290Z,14.77
2023-02-04T19:45:26.323Z,13.63
2023-02-04T19:47:55.042Z,11.50
2023-02-04T19:50:25.325Z,11.55
2023-02-04T19:53:19.874Z,12.10
2023-02-04T19:55:50.829Z,12.43
2023-02-04T19:58:44.005Z,11.65
2023-02-04T20:01:19.322Z,10.20
2023-02-04T20:03:51.964Z,11.10
2023-02-04T20:06:35.854Z,14.77
2023-02-04T20:09:22.407Z,10.07
2023-02-04T20:14:56.034Z,10.13
2023-02-04T20:17:28.437Z,9.15
2023-02-04T20:25:19.529Z,7.90
2023-02-04T20:27:48.955Z,10.30
2023-02-04T20:30:25.944Z,7.05
2023-02-04T20:32:56.113Z,9.60
2023-02-04T20:35:25.113Z,7.43
2023-02-04T20:37:55.722Z,6.05
2023-02-04T20:40:26.447Z,9.18
2023-02-04T20:43:03.215Z,7.13
2023-02-04T20:45:55.381Z,13.82
2023-02-04T20:48:35.857Z,13.63
2023-02-04T20:51:13.885Z,14.90
2023-02-04T20:53:52.584Z,10.32
2023-02-04T20:56:28.459Z,11.27
2023-02-04T20:59:12.338Z,11.77
2023-02-04T21:01:46.940Z,14.07
2023-02-04T21:04:26.063Z,19.50
2023-02-04T21:07:03.776Z,13.27
2023-02-04T21:09:41.822Z,12.30
2023-02-04T21:12:08.959Z,9.68
2023-02-04T21:14:36.187Z,14.13
2023-02-04T21:17:05.132Z,11.13
2023-02-04T21:19:38.792Z,10.40
2023-02-04T21:22:05.379Z,13.40
2023-02-04T21:24:32.095Z,11.05
2023-02-04T21:27:03.922Z,11.90
2023-02-04T21:29:30.485Z,15.95
2023-02-04T21:31:57.147Z,12.20
2023-02-04T21:34:27.258Z,11.90
2023-02-04T21:36:56.305Z,12.70
2023-02-04T21:39:28.451Z,12.65
2023-02-04T21:42:09.827Z,11.15
2023-02-04T21:44:37.821Z,11.00
2023-02-04T21:47:06.664Z,13.32
2023-02-04T21:49:43.076Z,12.07
2023-02-04T21:52:12.657Z,12.40
2023-02-04T21:54:39.221Z,8.70
2023-02-04T21:57:05.855Z,8.20
2023-02-04T21:59:32.497Z,11.77
2023-02-04T22:02:01.310Z,9.40
2023-02-04T22:04:27.961Z,10.82
2023-02-04T22:07:04.159Z,6.38
2023-02-04T22:09:35.626Z,8.93
2023-02-04T22:12:04.102Z,15.10
2023-02-04T22:14:30.677Z,14.07
2023-02-04T22:16:57.215Z,10.85
2023-02-04T22:19:23.783Z,13.35
2023-02-04T22:21:53.355Z,8.90
2023-02-04T22:24:22.659Z,12.57
2023-02-04T22:26:51.506Z,11.73
2023-02-04T22:29:28.404Z,13.73
2023-02-04T22:32:02.312Z,12.43
2023-02-04T22:34:28.945Z,9.13
2023-02-04T22:36:57.970Z,9.60
2023-02-04T22:39:26.715Z,8.32
2023-02-04T22:41:55.822Z,9.68
2023-02-04T22:44:22.430Z,6.88
2023-02-04T22:46:50.374Z,10.82
2023-02-04T22:49:18.176Z,9.20
2023-02-04T22:51:44.806Z,8.23
2023-02-04T22:54:13.981Z,8.27
2023-02-04T22:56:48.012Z,8.23
2023-02-04T22:59:16.914Z,9.63
2023-02-04T23:01:48.792Z,8.18
2023-02-04T23:04:17.786Z,7.07
2023-02-04T23:06:51.408Z,7.93
2023-02-04T23:09:20.030Z,9.27
2023-02-04T23:11:49.584Z,10.85
2023-02-04T23:14:16.242Z,9.90
2023-02-04T23:16:46.888Z,7.95
2023-02-04T23:19:15.941Z,13.82
2023-02-04T23:21:44.972Z,10.23
2023-02-04T23:24:15.431Z,11.57
2023-02-04T23:26:42.062Z,11.57
2023-02-04T23:29:08.673Z,8.77
2023-02-04T23:31:38.590Z,9.95
2023-02-04T23:34:15.039Z,9.30
2023-02-04T23:36:50.834Z,10.40
2023-02-04T23:39:22.150Z,12.82
2023-02-04T23:41:56.448Z,9.73
2023-02-04T23:44:25.808Z,13.52
2023-02-04T23:46:56.153Z,10.85
2023-02-04T23:49:22.862Z,10.80
2023-02-04T23:51:57.200Z,11.95
2023-02-04T23:56:55.066Z,12.48
2023-02-04T23:59:23.930Z,10.30
